This is the latest recevied weather packets stored in our database for station/object WA4TPR. If no packets are shown the sender has not sent any weather packets the latest 10 day(s).
| Time | Temp. | Humidity | Pressure | Rain* | Wind** | Luminosity | Snow |
|---|---|---|---|---|---|---|---|
| 1777159396 | 21.11° C | 95% | 1014 hPa | 0 mm | - | 61 W/m² | - |
| 1777159093 | 21.11° C | 95% | 1014.1 hPa | 3.05 mm | - | 88 W/m² | - |
| 1777158789 | 21.11° C | 96% | 1013.9 hPa | 31.75 mm | - | 108 W/m² | - |
| 1777158488 | 20.56° C | 95% | 1014.1 hPa | 43.18 mm | - | 106 W/m² | - |
| 1777158184 | 20° C | 95% | 1014.3 hPa | 39.62 mm | - | 80 W/m² | - |
| 1777157879 | 20° C | 97% | 1014.3 hPa | 48.51 mm | - | 58 W/m² | - |
| 1777157575 | 20° C | 97% | 1014.9 hPa | 18.03 mm | - | 24 W/m² | - |
| 1777157272 | 20.56° C | 96% | 1014.1 hPa | 0 mm | - | 15 W/m² | - |
| 1777156971 | 20.56° C | 96% | 1014 hPa | 0 mm | - | 16 W/m² | - |
| 1777156666 | 20.56° C | 96% | 1014.2 hPa | 0 mm | - | 20 W/m² | - |
| 1777156363 | 20° C | 96% | 1014.1 hPa | 0 mm | - | 26 W/m² | - |
| 1777156059 | 20° C | 96% | 1014.1 hPa | 0 mm | - | 30 W/m² | - |
| 1777155756 | 20° C | 97% | 1013.9 hPa | 1.78 mm | - | 42 W/m² | - |
| 1777155451 | 20° C | 97% | 1014.4 hPa | 1.27 mm | - | 50 W/m² | - |
| 1777155149 | 20° C | 97% | 1014.4 hPa | 4.83 mm | - | 59 W/m² | - |
| 1777154846 | 20.56° C | 97% | 1014.3 hPa | 4.83 mm | - | 77 W/m² | - |
| 1777154543 | 21.11° C | 96% | 1013.8 hPa | 7.11 mm | - | 77 W/m² | - |
| 1777154238 | 21.11° C | 96% | 1014.1 hPa | 11.94 mm | - | 69 W/m² | - |
| 1777153935 | 21.67° C | 95% | 1013.7 hPa | 13.72 mm | - | 78 W/m² | - |
| 1777153630 | 22.22° C | 93% | 1013.7 hPa | 16.76 mm | - | 58 W/m² | - |
| 1777153327 | 23.89° C | 87% | 1013.6 hPa | 14.99 mm | - | 37 W/m² | - |
| 1777153023 | 28.89° C | 67% | 1013.7 hPa | 3.05 mm | - | 18 W/m² | - |
| 1777152720 | 29.44° C | 52% | 1013.2 hPa | 0 mm | - | 23 W/m² | - |
| 1777152416 | 30° C | 51% | 1012.9 hPa | 0 mm | - | 41 W/m² | - |
| 1777152113 | 30° C | 50% | 1012.8 hPa | 0 mm | - | 55 W/m² | - |
* Rain latest hour (hover to see other rain measurements)
** Current wind speed in m/s (hover to see current wind gust speed)